createdAt,value
2023-03-04T00:02:42.627Z,99485.79
2023-03-04T00:05:44.193Z,99485.10
2023-03-04T00:08:46.428Z,99480.67
2023-03-04T00:11:47.920Z,99476.77
2023-03-04T00:14:49.577Z,99468.96
2023-03-04T00:17:51.277Z,99464.52
2023-03-04T00:20:52.925Z,99457.22
2023-03-04T00:23:54.624Z,99456.19
2023-03-04T00:26:56.400Z,99452.11
2023-03-04T00:29:57.923Z,99442.77
2023-03-04T00:33:02.669Z,99434.27
2023-03-04T00:36:04.830Z,99421.35
2023-03-04T00:39:06.381Z,99423.39
2023-03-04T00:42:07.934Z,99423.88
2023-03-04T00:45:10.217Z,99421.49
2023-03-04T00:48:11.879Z,99418.61
2023-03-04T00:51:13.428Z,99416.08
2023-03-04T00:54:15.075Z,99410.96
2023-03-04T00:57:16.763Z,99399.40
2023-03-04T01:00:18.665Z,99389.89
2023-03-04T01:03:20.283Z,99382.41
2023-03-04T01:06:22.218Z,99378.67
2023-03-04T01:09:24.001Z,99371.35
2023-03-04T01:12:26.194Z,99373.58
2023-03-04T01:15:27.745Z,99371.02
2023-03-04T01:18:29.402Z,99366.95
2023-03-04T01:21:31.010Z,99359.45
2023-03-04T01:24:32.787Z,99359.64
2023-03-04T01:27:34.393Z,99356.90
2023-03-04T01:30:36.147Z,99351.64
2023-03-04T01:33:38.167Z,99353.67
2023-03-04T01:36:39.783Z,99344.84
2023-03-04T01:39:41.398Z,99341.44
2023-03-04T01:42:43.867Z,99334.98
2023-03-04T01:45:47.492Z,99331.05
2023-03-04T01:48:49.227Z,99326.63
2023-03-04T01:51:53.276Z,99324.41
2023-03-04T01:54:55.503Z,99322.71
2023-03-04T01:57:57.220Z,99317.42
2023-03-04T02:00:59.207Z,99317.59
2023-03-04T02:04:00.795Z,99314.00
2023-03-04T02:07:03.830Z,99311.77
2023-03-04T02:10:06.108Z,99310.92
2023-03-04T02:13:07.798Z,99303.77
2023-03-04T02:16:09.466Z,99301.21
2023-03-04T02:19:20.474Z,99298.98
2023-03-04T02:22:22.218Z,99290.81
2023-03-04T02:25:30.500Z,99289.61
2023-03-04T02:28:31.990Z,99289.94
2023-03-04T02:31:40.326Z,99289.27
2023-03-04T02:34:47.537Z,99289.42
2023-03-04T02:37:49.169Z,99290.27
2023-03-04T02:40:51.633Z,99283.47
2023-03-04T02:43:54.820Z,99281.41
2023-03-04T02:46:57.144Z,99279.36
2023-03-04T02:49:58.773Z,99267.63
2023-03-04T02:53:00.412Z,99262.87
2023-03-04T02:56:02.145Z,99257.76
2023-03-04T02:59:03.699Z,99252.47
2023-03-04T03:02:06.689Z,99242.94
2023-03-04T03:05:08.329Z,99246.51
2023-03-04T03:08:10.042Z,99242.60
2023-03-04T03:11:11.674Z,99244.98
2023-03-04T03:14:13.527Z,99238.86
2023-03-04T03:17:15.003Z,99243.94
2023-03-04T03:20:18.029Z,99246.31
2023-03-04T03:23:19.770Z,99233.89
2023-03-04T03:26:21.650Z,99231.86
2023-03-04T03:29:23.249Z,99220.96
2023-03-04T03:32:25.076Z,99221.30
2023-03-04T03:35:26.923Z,99227.58
2023-03-04T03:38:28.554Z,99229.44
2023-03-04T03:41:30.121Z,99233.70
2023-03-04T03:44:31.972Z,99231.13
2023-03-04T03:47:33.379Z,99226.52
2023-03-04T03:50:35.431Z,99217.69
2023-03-04T03:53:40.217Z,99219.90
2023-03-04T03:56:41.787Z,99224.49
2023-03-04T03:59:43.425Z,99221.95
2023-03-04T04:02:45.220Z,99220.56
2023-03-04T04:05:46.967Z,99226.69
2023-03-04T04:08:48.644Z,99226.34
2023-03-04T04:11:50.269Z,99225.33
2023-03-04T04:14:51.821Z,99223.78
2023-03-04T04:17:53.386Z,99215.44
2023-03-04T04:20:55.176Z,99216.80
2023-03-04T04:23:56.855Z,99217.61
2023-03-04T04:26:58.506Z,99216.25
2023-03-04T04:30:00.211Z,99213.86
2023-03-04T04:33:01.881Z,99216.42
2023-03-04T04:36:04.354Z,99214.21
2023-03-04T04:39:06.168Z,99214.55
2023-03-04T04:42:10.650Z,99211.48
2023-03-04T04:45:12.574Z,99205.52
2023-03-04T04:48:14.222Z,99200.09
2023-03-04T04:51:16.082Z,99198.90
2023-03-04T04:54:17.636Z,99193.98
2023-03-04T04:57:19.409Z,99190.08
2023-03-04T05:00:21.354Z,99186.33
2023-03-04T05:03:23.708Z,99189.73
2023-03-04T05:06:26.030Z,99190.73
2023-03-04T05:09:27.626Z,99186.65
2023-03-04T05:12:29.317Z,99186.65
2023-03-04T05:15:30.922Z,99180.84
2023-03-04T05:18:32.721Z,99176.93
2023-03-04T05:21:34.369Z,99175.92
2023-03-04T05:24:35.936Z,99173.88
2023-03-04T05:27:37.580Z,99168.84
2023-03-04T05:30:40.501Z,99171.64
2023-03-04T05:33:42.076Z,99168.64
2023-03-04T05:36:43.786Z,99170.04
2023-03-04T05:39:45.401Z,99168.05
2023-03-04T05:42:47.206Z,99165.88
2023-03-04T05:45:49.409Z,99161.98
2023-03-04T05:48:51.568Z,99160.97
2023-03-04T05:51:53.145Z,99160.08
2023-03-04T05:54:54.795Z,99160.55
2023-03-04T05:57:57.227Z,99162.36
2023-03-04T06:01:02.640Z,99158.92
2023-03-04T06:04:04.846Z,99161.08
2023-03-04T06:07:06.586Z,99161.20
2023-03-04T06:10:08.413Z,99158.80
2023-03-04T06:13:10.622Z,99154.85
2023-03-04T06:16:12.293Z,99158.57
2023-03-04T06:19:13.830Z,99158.35
2023-03-04T06:22:15.493Z,99161.23
2023-03-04T06:25:17.099Z,99157.61
2023-03-04T06:28:18.660Z,99155.86
2023-03-04T06:31:20.388Z,99151.42
2023-03-04T06:34:21.985Z,99152.94
2023-03-04T06:37:23.886Z,99149.52
2023-03-04T06:40:25.467Z,99146.64
2023-03-04T06:43:27.072Z,99148.39
2023-03-04T06:46:30.467Z,99150.50
2023-03-04T06:49:32.507Z,99153.00
2023-03-04T06:52:34.018Z,99149.09
2023-03-04T06:55:35.738Z,99150.09
2023-03-04T06:58:37.621Z,99151.59
2023-03-04T07:01:39.354Z,99145.85
2023-03-04T07:04:41.150Z,99146.89
2023-03-04T07:07:42.759Z,99159.99
2023-03-04T07:10:44.335Z,99163.06
2023-03-04T07:13:46.487Z,99172.20
2023-03-04T07:16:48.135Z,99177.98
2023-03-04T07:19:49.770Z,99182.08
2023-03-04T07:22:51.460Z,99190.05
2023-03-04T07:25:53.533Z,99193.59
2023-03-04T07:28:55.028Z,99199.29
2023-03-04T07:31:56.794Z,99194.36
2023-03-04T07:34:58.517Z,99201.66
2023-03-04T07:38:00.287Z,99210.16
2023-03-04T07:41:02.660Z,99206.27
2023-03-04T07:44:05.073Z,99200.38
2023-03-04T07:47:06.739Z,99200.95
2023-03-04T07:50:09.918Z,99194.02
2023-03-04T07:53:11.558Z,99194.70
2023-03-04T07:56:14.256Z,99193.36
2023-03-04T07:59:15.987Z,99197.97
2023-03-04T08:02:17.725Z,99202.92
2023-03-04T08:05:19.461Z,99213.83
2023-03-04T08:08:21.074Z,99212.16
2023-03-04T08:11:22.764Z,99211.52
2023-03-04T08:14:24.454Z,99212.91
2023-03-04T08:17:26.455Z,99210.86
2023-03-04T08:20:28.105Z,99214.61
2023-03-04T08:23:29.705Z,99213.77
2023-03-04T08:26:39.745Z,99215.14
2023-03-04T08:29:42.326Z,99218.35
2023-03-04T08:32:44.034Z,99216.15
2023-03-04T08:35:45.498Z,99211.53
2023-03-04T08:38:47.784Z,99212.17
2023-03-04T08:41:49.393Z,99213.54
2023-03-04T08:44:51.014Z,99214.91
2023-03-04T08:47:52.635Z,99208.07
2023-03-04T08:50:54.197Z,99211.77
2023-03-04T08:53:55.893Z,99212.70
2023-03-04T08:56:57.608Z,99211.64
2023-03-04T08:59:59.399Z,99215.23
2023-03-04T09:03:01.018Z,99218.27
2023-03-04T09:06:04.220Z,99219.44
2023-03-04T09:09:05.780Z,99224.77
2023-03-04T09:12:08.064Z,99227.96
2023-03-04T09:15:11.988Z,99232.72
2023-03-04T09:18:14.732Z,99229.02
2023-03-04T09:21:16.441Z,99223.80
2023-03-04T09:24:17.901Z,99217.05
2023-03-04T09:27:19.801Z,99216.10
2023-03-04T09:30:21.659Z,99216.48
2023-03-04T09:33:23.170Z,99216.02
2023-03-04T09:36:25.067Z,99214.02
2023-03-04T09:39:26.730Z,99209.08
2023-03-04T09:42:37.278Z,99212.30
2023-03-04T09:45:44.294Z,99214.66
2023-03-04T09:48:52.423Z,99210.27
2023-03-04T09:52:05.271Z,99209.24
2023-03-04T09:55:22.109Z,99213.30
2023-03-04T09:58:38.846Z,99214.49
2023-03-04T10:01:50.101Z,99210.07
2023-03-04T10:04:53.567Z,99210.72
2023-03-04T10:07:58.586Z,99211.89
2023-03-04T10:11:01.762Z,99211.20
2023-03-04T10:14:20.406Z,99206.08
2023-03-04T10:17:27.013Z,99205.36
2023-03-04T10:20:38.878Z,99198.73
2023-03-04T10:23:40.480Z,99197.20
2023-03-04T10:26:45.089Z,99196.34
2023-03-04T10:29:48.947Z,99192.42
2023-03-04T10:32:50.940Z,99192.38
2023-03-04T10:36:24.191Z,99187.27
2023-03-04T10:39:38.545Z,99186.78
2023-03-04T10:42:40.271Z,99181.02
2023-03-04T10:45:41.861Z,99183.75
2023-03-04T10:48:43.699Z,99184.29
2023-03-04T10:51:46.370Z,99179.95
2023-03-04T10:54:50.572Z,99175.05
2023-03-04T10:57:58.059Z,99167.45
2023-03-04T11:01:05.828Z,99164.52
2023-03-04T11:04:17.461Z,99156.69
2023-03-04T11:07:20.794Z,99154.23
2023-03-04T11:10:28.416Z,99156.30
2023-03-04T11:13:31.972Z,99161.98
2023-03-04T11:16:33.603Z,99160.59
2023-03-04T11:19:38.937Z,99158.56
2023-03-04T11:22:42.055Z,99153.14
2023-03-04T11:25:47.604Z,99151.61
2023-03-04T11:29:14.493Z,99151.77
2023-03-04T11:32:37.320Z,99145.60
2023-03-04T11:36:08.388Z,99141.45
2023-03-04T11:39:17.647Z,99132.02
2023-03-04T11:42:42.903Z,99126.06
2023-03-04T11:46:02.605Z,99122.10
2023-03-04T11:49:25.353Z,99121.74
2023-03-04T11:52:49.345Z,99117.16
2023-03-04T11:56:08.778Z,99110.27
2023-03-04T11:59:34.394Z,99106.04
2023-03-04T12:02:59.566Z,99089.80
2023-03-04T12:06:38.629Z,99092.27
2023-03-04T12:09:57.284Z,99086.76
2023-03-04T12:13:14.158Z,99086.80
2023-03-04T12:16:34.803Z,99089.32
2023-03-04T12:19:59.030Z,99088.77
2023-03-04T12:23:12.032Z,99089.33
2023-03-04T12:26:24.690Z,99093.43
2023-03-04T12:29:37.844Z,99093.95
2023-03-04T12:33:10.950Z,99096.21
2023-03-04T12:36:18.315Z,99095.36
2023-03-04T12:39:25.961Z,99094.62
2023-03-04T12:42:46.417Z,99096.48
2023-03-04T12:46:06.915Z,99099.68
2023-03-04T12:49:23.739Z,99094.90
2023-03-04T12:52:44.351Z,99088.43
2023-03-04T12:55:47.224Z,99089.39
2023-03-04T12:58:48.997Z,99085.10
2023-03-04T13:02:09.580Z,99081.98
2023-03-04T13:05:26.565Z,99081.94
2023-03-04T13:08:36.844Z,99069.63
2023-03-04T13:11:55.855Z,99066.55
2023-03-04T13:15:09.811Z,99070.05
2023-03-04T13:18:30.507Z,99069.79
2023-03-04T13:21:32.236Z,99061.66
2023-03-04T13:24:47.123Z,99061.38
2023-03-04T13:27:50.943Z,99058.71
2023-03-04T13:30:53.249Z,99055.90
2023-03-04T13:33:57.400Z,99054.50
2023-03-04T13:36:58.973Z,99048.98
2023-03-04T13:40:22.646Z,99048.39
2023-03-04T13:43:29.440Z,99045.05
2023-03-04T13:46:41.545Z,99040.36
2023-03-04T13:49:43.199Z,99043.39
2023-03-04T13:52:45.038Z,99038.10
2023-03-04T13:55:59.771Z,99041.79
2023-03-04T13:59:07.027Z,99037.04
2023-03-04T14:02:13.749Z,99030.30
2023-03-04T14:05:15.470Z,99033.61
2023-03-04T14:08:19.144Z,99028.74
2023-03-04T14:11:36.717Z,99030.09
2023-03-04T14:14:52.832Z,99028.10
2023-03-04T14:17:58.958Z,99022.31
2023-03-04T14:21:00.868Z,99021.09
2023-03-04T14:24:04.153Z,99019.20
2023-03-04T14:27:14.018Z,99018.54
2023-03-04T14:30:40.824Z,99014.88
2023-03-04T14:33:50.028Z,99023.88
2023-03-04T14:36:51.704Z,99017.27
2023-03-04T14:39:57.249Z,99016.72
2023-03-04T14:43:04.055Z,99016.84
2023-03-04T14:46:08.751Z,99017.36
2023-03-04T14:49:12.161Z,99017.00
2023-03-04T14:52:49.910Z,99022.93
2023-03-04T14:55:59.035Z,99018.48
2023-03-04T14:59:00.630Z,99010.04
2023-03-04T15:02:26.105Z,99006.05
2023-03-04T15:05:30.545Z,99002.41
2023-03-04T15:08:40.279Z,99010.25
2023-03-04T15:12:02.468Z,99009.23
2023-03-04T15:15:33.056Z,99008.25
2023-03-04T15:18:35.028Z,99006.64
2023-03-04T15:21:41.156Z,98998.52
2023-03-04T15:24:42.845Z,98996.77
2023-03-04T15:27:48.612Z,98997.17
2023-03-04T15:30:51.284Z,98995.37
2023-03-04T15:33:53.035Z,99003.31
2023-03-04T15:36:54.628Z,99008.40
2023-03-04T15:39:57.646Z,98995.23
2023-03-04T15:43:02.043Z,98996.19
2023-03-04T15:46:03.813Z,98996.27
2023-03-04T15:49:05.495Z,98996.16
2023-03-04T15:52:07.686Z,98997.81
2023-03-04T15:55:18.797Z,98993.20
2023-03-04T15:58:20.575Z,98974.26
2023-03-04T16:01:22.454Z,98989.06
2023-03-04T16:04:24.214Z,98985.20
2023-03-04T16:07:29.429Z,98986.34
2023-03-04T16:10:31.173Z,98980.70
2023-03-04T16:13:32.744Z,98981.11
2023-03-04T16:16:34.344Z,98984.58
2023-03-04T16:19:35.953Z,98982.63
2023-03-04T16:22:37.834Z,98978.34
2023-03-04T16:25:39.466Z,98976.90
2023-03-04T16:28:41.378Z,98991.32
2023-03-04T16:31:43.438Z,98992.27
2023-03-04T16:34:45.025Z,98989.52
2023-03-04T16:37:47.494Z,98987.72
2023-03-04T16:40:49.098Z,98987.70
2023-03-04T16:43:50.736Z,98994.48
2023-03-04T16:46:52.274Z,98992.23
2023-03-04T16:49:53.900Z,98995.90
2023-03-04T16:52:56.208Z,98997.40
2023-03-04T16:55:59.986Z,98998.57
2023-03-04T16:59:01.823Z,99001.77
2023-03-04T17:02:03.550Z,99001.59
2023-03-04T17:05:05.714Z,99000.35
2023-03-04T17:08:07.294Z,98994.77
2023-03-04T17:11:12.576Z,98998.12
2023-03-04T17:14:14.346Z,98996.30
2023-03-04T17:17:18.330Z,98988.44
2023-03-04T17:20:20.565Z,98976.47
2023-03-04T17:23:22.321Z,98977.01
2023-03-04T17:26:23.769Z,98978.55
2023-03-04T17:29:25.572Z,98974.66
2023-03-04T17:32:27.088Z,98968.23
2023-03-04T17:35:28.868Z,98964.80
2023-03-04T17:38:30.438Z,98961.86
2023-03-04T17:41:35.049Z,98952.59
2023-03-04T17:44:37.696Z,98956.84
2023-03-04T17:47:39.321Z,98957.06
2023-03-04T17:50:51.060Z,98960.05
2023-03-04T17:53:52.814Z,98963.35
2023-03-04T17:56:54.449Z,98960.34
2023-03-04T17:59:56.175Z,98966.44
2023-03-04T18:02:57.842Z,98973.05
2023-03-04T18:05:59.457Z,98963.45
2023-03-04T18:09:01.173Z,98967.89
2023-03-04T18:12:02.815Z,98968.54
2023-03-04T18:15:05.067Z,98969.84
2023-03-04T18:18:07.120Z,98974.17
2023-03-04T18:21:08.912Z,98970.71
2023-03-04T18:24:10.566Z,98969.15
2023-03-04T18:27:12.199Z,98976.27
2023-03-04T18:30:15.922Z,98961.22
2023-03-04T18:33:17.677Z,98950.02
2023-03-04T18:36:19.434Z,98944.66
2023-03-04T18:39:20.973Z,98947.52
2023-03-04T18:42:22.667Z,98951.46
2023-03-04T18:45:24.229Z,98947.92
2023-03-04T18:48:25.894Z,98946.44
2023-03-04T18:51:27.497Z,98939.65
2023-03-04T18:54:29.149Z,98945.20
2023-03-04T18:57:31.121Z,98945.34
2023-03-04T19:00:32.765Z,98951.13
2023-03-04T19:03:34.688Z,98959.16
2023-03-04T19:06:36.500Z,98967.07
2023-03-04T19:09:38.234Z,98973.23
2023-03-04T19:12:39.989Z,98979.58
2023-03-04T19:15:41.675Z,98984.59
2023-03-04T19:18:43.439Z,98980.66
2023-03-04T19:21:45.294Z,98978.11
2023-03-04T19:24:46.752Z,98982.31
2023-03-04T19:27:48.538Z,98978.90
2023-03-04T19:30:50.468Z,98979.77
2023-03-04T19:33:52.113Z,98976.63
2023-03-04T19:36:53.738Z,98978.58
2023-03-04T19:39:55.364Z,98984.46
2023-03-04T19:42:56.986Z,98990.02
2023-03-04T19:45:58.492Z,98991.46
2023-03-04T19:49:02.197Z,98992.29
2023-03-04T19:52:04.899Z,98995.03
2023-03-04T19:55:06.714Z,98991.83
2023-03-04T19:58:08.344Z,98994.09
2023-03-04T20:01:25.985Z,98996.48
2023-03-04T20:04:27.612Z,98994.52
2023-03-04T20:07:29.390Z,98995.90
2023-03-04T20:10:34.644Z,99000.70
2023-03-04T20:13:36.209Z,99010.61
2023-03-04T20:16:37.879Z,99033.00
2023-03-04T20:19:39.518Z,99037.91
2023-03-04T20:22:41.360Z,99038.38
2023-03-04T20:25:42.816Z,99048.63
2023-03-04T20:28:44.577Z,99054.76
2023-03-04T20:31:46.021Z,99050.13
2023-03-04T20:34:48.145Z,99051.05
2023-03-04T20:37:49.922Z,99048.83
2023-03-04T20:40:51.441Z,99048.49
2023-03-04T20:43:53.105Z,99048.77
2023-03-04T20:46:55.225Z,99045.95
2023-03-04T20:49:57.175Z,99047.48
2023-03-04T20:52:58.781Z,99045.98
2023-03-04T20:56:03.206Z,99047.52
2023-03-04T20:59:07.249Z,99044.11
2023-03-04T21:02:12.367Z,99046.84
2023-03-04T21:05:13.897Z,99044.27
2023-03-04T21:08:15.496Z,99041.57
2023-03-04T21:11:17.893Z,99035.79
2023-03-04T21:14:22.307Z,99034.77
2023-03-04T21:17:23.884Z,99037.65
2023-03-04T21:20:25.579Z,99038.67
2023-03-04T21:23:27.359Z,99043.27
2023-03-04T21:26:29.001Z,99038.98
2023-03-04T21:29:30.513Z,99040.20
2023-03-04T21:32:32.163Z,99041.75
2023-03-04T21:35:34.530Z,99040.23
2023-03-04T21:38:37.910Z,99043.46
2023-03-04T21:41:40.372Z,99043.32
2023-03-04T21:44:50.757Z,99040.83
2023-03-04T21:47:53.013Z,99039.55
2023-03-04T21:50:54.582Z,99035.00
2023-03-04T21:53:56.266Z,99032.52
2023-03-04T21:56:57.944Z,99034.11
2023-03-04T21:59:59.484Z,99033.48
2023-03-04T22:03:01.080Z,99032.33
2023-03-04T22:06:06.665Z,99021.98
2023-03-04T22:09:08.294Z,99025.39
2023-03-04T22:12:09.880Z,99024.23
2023-03-04T22:15:11.876Z,99026.40
2023-03-04T22:18:14.146Z,99025.80
2023-03-04T22:21:17.903Z,99029.31
2023-03-04T22:24:20.264Z,99024.83
2023-03-04T22:27:21.811Z,99025.31
2023-03-04T22:30:23.412Z,99026.98
2023-03-04T22:33:26.091Z,99025.30
2023-03-04T22:36:32.799Z,99025.30
2023-03-04T22:39:34.395Z,99029.23
2023-03-04T22:42:36.198Z,99029.41
2023-03-04T22:45:37.764Z,99030.59
2023-03-04T22:48:39.386Z,99030.92
2023-03-04T22:51:42.940Z,99028.86
2023-03-04T22:54:44.659Z,99025.59
2023-03-04T22:57:46.213Z,99028.80
2023-03-04T23:00:47.854Z,99029.98
2023-03-04T23:03:49.485Z,99032.88
2023-03-04T23:06:51.130Z,99039.39
2023-03-04T23:09:52.664Z,99044.86
2023-03-04T23:12:54.303Z,99043.68
2023-03-04T23:15:55.832Z,99048.08
2023-03-04T23:18:59.435Z,99050.45
2023-03-04T23:22:01.366Z,99051.13
2023-03-04T23:25:03.000Z,99055.73
2023-03-04T23:28:04.787Z,99055.02
2023-03-04T23:31:06.362Z,99051.48
2023-03-04T23:34:08.020Z,99054.27
2023-03-04T23:37:09.744Z,99058.20
2023-03-04T23:40:11.893Z,99060.62
2023-03-04T23:43:13.423Z,99059.96
2023-03-04T23:46:15.520Z,99059.48
2023-03-04T23:49:17.321Z,99060.68
2023-03-04T23:52:19.066Z,99057.80
2023-03-04T23:55:20.830Z,99064.96
2023-03-04T23:58:22.438Z,99061.06
